Milwaukee, Wisconsin
Traffic Map
Current Weather Conditions
Milwaukee, Wisconsin
Overcast
Overcast
47°
Feels Like: 41°
Wind Chill: 41° Ceiling: 2900
Heat Index: 47° Visibility: 10mi
Dew Point: 38° Wind: 14mph
Humidity: 71% Direction: 10° (N)
Pressure: 30.19in Gusts: 0mph
Raw Report DataKMKE 211531Z 01012KT 10SM SCT023 BKN029 OVC034 08/03 A3019 RMK AO2 T00830033
Traffic Incident Summary
Active as of:
Severity:
Category:
InformationThere was an issue retrieving the traffic information for this location. Please try a different location or try again shortly.
Advertisements
Track Severe Weather on mobile